createdAt,value
2017-11-22T00:01:35.089Z,84.20
2017-11-22T00:04:02.554Z,84.60
2017-11-22T00:06:30.020Z,84.50
2017-11-22T00:08:57.526Z,84.50
2017-11-22T00:11:25.005Z,84.00
2017-11-22T00:13:52.503Z,84.60
2017-11-22T00:16:20.759Z,84.60
2017-11-22T00:18:48.264Z,84.70
2017-11-22T00:21:15.899Z,84.70
2017-11-22T00:23:44.129Z,84.40
2017-11-22T00:26:11.620Z,84.40
2017-11-22T00:28:39.108Z,84.50
2017-11-22T00:31:07.377Z,84.40
2017-11-22T00:33:35.603Z,84.40
2017-11-22T00:36:03.112Z,84.40
2017-11-22T00:38:31.351Z,84.40
2017-11-22T00:40:58.849Z,84.40
2017-11-22T00:43:27.104Z,84.50
2017-11-22T00:45:54.563Z,84.50
2017-11-22T00:48:22.055Z,84.50
2017-11-22T00:50:49.632Z,84.50
2017-11-22T00:53:17.121Z,84.50
2017-11-22T00:55:44.579Z,84.50
2017-11-22T00:58:12.061Z,84.50
2017-11-22T01:00:39.552Z,84.30
2017-11-22T01:03:07.048Z,84.30
2017-11-22T01:05:34.520Z,84.20
2017-11-22T01:08:01.975Z,84.20
2017-11-22T01:10:29.468Z,84.10
2017-11-22T01:12:57.681Z,84.20
2017-11-22T01:15:25.190Z,84.20
2017-11-22T01:17:53.423Z,84.10
2017-11-22T01:20:20.889Z,84.10
2017-11-22T01:22:48.385Z,84.10
2017-11-22T01:25:15.837Z,83.90
2017-11-22T01:27:43.324Z,84.00
2017-11-22T01:30:10.830Z,84.00
2017-11-22T01:32:38.292Z,84.20
2017-11-22T06:29:20.848Z,80.00
2017-11-22T06:31:48.319Z,79.10
2017-11-22T06:34:15.812Z,78.70
2017-11-22T06:36:44.058Z,78.20
2017-11-22T06:39:11.564Z,78.20
2017-11-22T06:41:39.139Z,77.80
2017-11-22T06:44:06.661Z,78.20
2017-11-22T06:46:34.900Z,78.40
2017-11-22T06:49:02.420Z,78.50
2017-11-22T06:51:29.883Z,78.50
2017-11-22T06:53:57.397Z,81.90
2017-11-22T06:56:24.912Z,82.50
2017-11-22T06:58:52.378Z,72.40
2017-11-22T07:01:19.887Z,69.70
2017-11-22T07:03:53.075Z,68.70
2017-11-22T07:06:21.367Z,72.40
2017-11-22T07:08:49.592Z,74.70
2017-11-22T07:11:17.094Z,74.70
2017-11-22T07:13:45.340Z,76.90
2017-11-22T07:16:18.519Z,76.90
2017-11-22T07:18:45.989Z,78.30
2017-11-22T07:21:13.473Z,78.50
2017-11-22T07:23:40.988Z,78.40
2017-11-22T07:26:08.492Z,79.00
2017-11-22T07:28:36.040Z,79.40
2017-11-22T07:31:03.517Z,79.10
2017-11-22T07:33:31.033Z,79.80
2017-11-22T07:36:04.115Z,79.90
2017-11-22T07:38:31.661Z,79.80
2017-11-22T07:40:59.124Z,80.20
2017-11-22T07:43:26.610Z,80.60
2017-11-22T07:45:54.110Z,81.70
2017-11-22T07:48:22.369Z,78.50
2017-11-22T07:50:49.881Z,78.50
2017-11-22T07:53:17.353Z,73.00
2017-11-22T07:55:44.866Z,73.10
2017-11-22T07:58:13.121Z,77.80
2017-11-22T08:00:40.615Z,77.80
2017-11-22T08:03:08.935Z,79.30
2017-11-22T08:05:36.432Z,80.50
2017-11-22T08:08:04.666Z,81.20
2017-11-22T08:10:32.192Z,81.20
2017-11-22T08:12:59.745Z,81.70
2017-11-22T08:15:27.284Z,82.90
2017-11-22T08:17:55.570Z,83.70
2017-11-22T08:20:23.844Z,83.70
2017-11-22T08:22:52.095Z,83.70
2017-11-22T08:25:21.401Z,83.70
2017-11-22T08:27:48.936Z,84.00
2017-11-22T08:30:17.174Z,84.60
2017-11-22T08:32:44.656Z,84.60
2017-11-22T08:35:12.165Z,84.30
2017-11-22T08:37:40.439Z,84.30
2017-11-22T08:40:08.676Z,84.40
2017-11-22T08:42:36.973Z,84.40
2017-11-22T08:45:04.499Z,84.30
2017-11-22T08:47:32.005Z,84.80
2017-11-22T08:50:00.285Z,85.10
2017-11-22T08:52:28.560Z,85.30
2017-11-22T08:55:01.804Z,85.30
2017-11-22T08:57:35.096Z,85.50
2017-11-22T09:00:08.308Z,85.50
2017-11-22T09:02:35.821Z,86.00
2017-11-22T09:05:04.109Z,86.30
2017-11-22T09:07:32.565Z,86.30
2017-11-22T09:10:00.808Z,86.10
2017-11-22T09:15:24.297Z,86.20
2017-11-22T09:17:51.793Z,85.50
2017-11-22T09:20:20.049Z,85.30
2017-11-22T09:22:47.521Z,85.30
2017-11-22T09:25:16.704Z,84.90
2017-11-22T09:27:49.776Z,84.90
2017-11-22T09:30:17.281Z,84.60
2017-11-22T09:32:45.517Z,84.20
2017-11-22T09:35:15.878Z,84.20
2017-11-22T09:37:44.105Z,84.50
2017-11-22T09:40:11.612Z,84.50
2017-11-22T09:42:39.873Z,82.80
2017-11-22T09:45:07.328Z,82.80
2017-11-22T09:47:34.846Z,84.80
2017-11-22T09:50:02.303Z,83.40
2017-11-22T09:52:29.779Z,83.90
2017-11-22T09:54:57.274Z,83.30
2017-11-22T09:57:25.529Z,84.00
2017-11-22T09:59:53.058Z,84.00
2017-11-22T10:02:20.511Z,85.50
2017-11-22T10:04:48.024Z,84.90
2017-11-22T10:07:15.510Z,84.40
2017-11-22T10:09:43.033Z,83.90
2017-11-22T10:12:10.516Z,83.90
2017-11-22T10:14:38.744Z,72.90
2017-11-22T10:17:12.280Z,72.90
2017-11-22T10:19:43.480Z,71.40
2017-11-22T10:22:11.052Z,71.40
2017-11-22T10:24:44.485Z,71.60
2017-11-22T10:27:17.716Z,71.20
2017-11-22T10:29:46.122Z,70.90
2017-11-22T10:32:19.212Z,70.60
2017-11-22T10:34:46.689Z,73.70
2017-11-22T10:37:14.186Z,69.90
2017-11-22T10:39:41.678Z,70.10
2017-11-22T10:42:09.161Z,69.20
2017-11-22T10:44:36.668Z,71.60
2017-11-22T10:47:04.142Z,71.20
2017-11-22T10:49:31.626Z,68.40
2017-11-22T10:51:59.120Z,68.30
2017-11-22T10:54:27.417Z,69.30
2017-11-22T10:56:54.933Z,69.30
2017-11-22T10:59:22.417Z,69.00
2017-11-22T11:01:50.722Z,66.80
2017-11-22T11:04:18.204Z,66.80
2017-11-22T11:06:45.683Z,67.80
2017-11-22T11:09:13.164Z,69.50
2017-11-22T11:11:41.409Z,65.90
2017-11-22T11:14:08.920Z,65.90
2017-11-22T11:16:36.394Z,66.50
2017-11-22T11:19:03.891Z,65.40
2017-11-22T11:21:31.350Z,65.40
2017-11-22T11:23:58.855Z,65.30
2017-11-22T11:26:26.364Z,66.00
2017-11-22T11:28:53.852Z,65.30
2017-11-22T11:31:22.125Z,64.70
2017-11-22T11:33:50.379Z,65.90
2017-11-22T11:36:29.718Z,65.90
2017-11-22T11:38:57.968Z,66.10
2017-11-22T11:41:25.761Z,66.10
2017-11-22T11:43:53.249Z,67.40
2017-11-22T11:46:21.485Z,67.30
2017-11-22T11:48:48.968Z,67.30
2017-11-22T11:51:17.199Z,68.30
2017-11-22T11:53:44.703Z,68.30
2017-11-22T11:56:12.228Z,68.00
2017-11-22T11:58:39.696Z,69.00
2017-11-22T12:01:07.211Z,67.90
2017-11-22T12:03:34.697Z,68.50
2017-11-22T12:06:02.195Z,68.30
2017-11-22T12:08:29.672Z,67.60
2017-11-22T12:10:57.937Z,65.40
2017-11-22T12:13:26.185Z,65.00
2017-11-22T12:15:53.667Z,65.00
2017-11-22T12:18:21.177Z,65.00
2017-11-22T12:20:49.601Z,63.80
2017-11-22T12:23:22.840Z,64.80
2017-11-22T12:25:50.314Z,63.90
2017-11-22T12:28:17.858Z,64.30
2017-11-22T12:30:45.350Z,62.90
2017-11-22T12:33:13.608Z,63.30
2017-11-22T12:35:41.101Z,63.30
2017-11-22T12:38:08.582Z,63.30
2017-11-22T12:40:36.864Z,63.40
2017-11-22T12:43:05.105Z,63.20
2017-11-22T12:45:32.576Z,63.10
2017-11-22T12:48:00.084Z,62.80
2017-11-22T12:50:27.608Z,62.60
2017-11-22T12:52:55.881Z,63.10
2017-11-22T12:55:24.181Z,63.50
2017-11-22T12:57:53.372Z,62.90
2017-11-22T13:00:21.663Z,62.90
2017-11-22T13:02:49.185Z,62.80
2017-11-22T13:05:16.665Z,62.40
2017-11-22T13:07:44.951Z,62.00
2017-11-22T13:10:18.060Z,61.90
2017-11-22T13:12:45.581Z,61.40
2017-11-22T13:15:13.061Z,61.90
2017-11-22T13:17:41.437Z,62.00
2017-11-22T13:20:08.933Z,61.70
2017-11-22T13:22:36.462Z,61.70
2017-11-22T13:25:03.974Z,60.90
2017-11-22T13:27:31.441Z,61.60
2017-11-22T13:29:58.909Z,61.40
2017-11-22T13:32:26.423Z,61.30
2017-11-22T13:34:53.920Z,61.10
2017-11-22T13:37:21.458Z,61.70
2017-11-22T13:39:49.722Z,61.10
2017-11-22T13:42:17.215Z,61.10
2017-11-22T13:44:44.719Z,61.60
2017-11-22T13:47:12.230Z,61.90
2017-11-22T13:49:39.725Z,61.50
2017-11-22T13:52:07.231Z,61.90
2017-11-22T13:54:34.703Z,61.30
2017-11-22T13:57:02.181Z,61.00
2017-11-22T13:59:30.471Z,61.30
2017-11-22T14:01:58.707Z,60.70
2017-11-22T14:04:26.209Z,60.70
2017-11-22T14:06:53.706Z,61.00
2017-11-22T14:09:21.183Z,61.20
2017-11-22T14:11:48.724Z,62.00
2017-11-22T14:14:16.197Z,61.50
2017-11-22T14:16:43.708Z,61.70
2017-11-22T14:19:11.204Z,62.40
2017-11-22T14:21:38.689Z,61.30
2017-11-22T14:24:06.174Z,61.30
2017-11-22T14:26:34.395Z,61.80
2017-11-22T14:29:01.908Z,61.80
2017-11-22T14:31:30.182Z,61.70
2017-11-22T14:33:58.457Z,61.30
2017-11-22T14:36:26.706Z,62.10
2017-11-22T14:38:54.223Z,62.10
2017-11-22T14:41:21.722Z,62.40
2017-11-22T14:43:49.213Z,61.60
2017-11-22T14:46:17.469Z,62.40
2017-11-22T14:48:44.945Z,62.40
2017-11-22T14:51:13.222Z,63.20
2017-11-22T14:53:41.482Z,64.10
2017-11-22T14:56:08.945Z,64.10
2017-11-22T14:58:36.432Z,64.60
2017-11-22T15:01:03.929Z,65.20
2017-11-22T15:03:31.398Z,65.70
2017-11-22T15:05:58.897Z,66.50
2017-11-22T15:08:26.378Z,66.70
2017-11-22T15:10:53.881Z,67.20
2017-11-22T15:13:21.368Z,68.40
2017-11-22T15:15:49.638Z,69.60
2017-11-22T15:18:17.881Z,70.40
2017-11-22T15:20:45.396Z,70.30
2017-11-22T15:23:12.924Z,71.10
2017-11-22T15:25:40.388Z,71.70
2017-11-22T15:28:08.658Z,72.70
2017-11-22T15:30:36.140Z,72.70
2017-11-22T15:33:04.409Z,72.50
2017-11-22T15:35:32.666Z,73.00
2017-11-22T15:38:00.162Z,73.00
2017-11-22T15:40:27.656Z,73.00
2017-11-22T15:42:55.151Z,72.50
2017-11-22T15:45:22.673Z,71.90
2017-11-22T15:47:50.150Z,71.90
2017-11-22T15:50:17.683Z,72.90
2017-11-22T15:52:45.176Z,72.80
2017-11-22T15:55:12.652Z,72.70
2017-11-22T15:57:40.919Z,73.50
2017-11-22T16:00:09.155Z,73.80
2017-11-22T16:02:36.671Z,73.80
2017-11-22T16:05:04.929Z,83.10
2017-11-22T16:07:32.429Z,83.10
2017-11-22T16:09:59.933Z,82.80
2017-11-22T16:12:27.421Z,82.70
2017-11-22T16:14:55.705Z,82.10
2017-11-22T16:17:23.210Z,82.10
2017-11-22T16:19:50.711Z,82.10
2017-11-22T16:22:18.985Z,82.90
2017-11-22T16:24:47.221Z,83.10
2017-11-22T16:27:14.749Z,83.10
2017-11-22T16:29:42.233Z,83.80
2017-11-22T16:32:09.752Z,83.60
2017-11-22T16:34:38.004Z,83.80
2017-11-22T16:37:05.471Z,83.80
2017-11-22T16:39:33.735Z,82.50
2017-11-22T16:42:01.246Z,82.50
2017-11-22T16:44:28.772Z,82.70
2017-11-22T16:46:57.021Z,82.10
2017-11-22T16:49:24.563Z,82.10
2017-11-22T16:51:52.033Z,81.80
2017-11-22T16:54:19.526Z,81.80
2017-11-22T16:56:47.808Z,82.30
2017-11-22T16:59:16.092Z,82.50
2017-11-22T17:01:44.360Z,83.70
2017-11-22T17:04:12.603Z,83.90
2017-11-22T17:06:40.121Z,83.90
2017-11-22T17:09:08.812Z,83.60
2017-11-22T17:11:36.294Z,82.90
2017-11-22T17:14:04.520Z,82.70
2017-11-22T17:16:32.793Z,82.10
2017-11-22T17:19:01.077Z,82.10
2017-11-22T17:21:29.688Z,81.90
2017-11-22T17:23:57.230Z,81.90
2017-11-22T17:26:25.539Z,82.40
2017-11-22T17:28:53.016Z,82.30
2017-11-22T17:31:21.294Z,81.90
2017-11-22T17:33:48.953Z,82.00
2017-11-22T17:36:17.219Z,81.70
2017-11-22T17:38:44.751Z,81.70
2017-11-22T17:41:12.233Z,82.10
2017-11-22T17:43:39.761Z,83.40
2017-11-22T17:46:07.988Z,82.60
2017-11-22T17:48:35.480Z,82.60
2017-11-22T17:51:03.791Z,83.50
2017-11-22T17:53:31.263Z,83.50
2017-11-22T17:55:58.744Z,83.60
2017-11-22T17:58:26.309Z,82.90
2017-11-22T18:00:53.826Z,82.40
2017-11-22T18:03:21.304Z,81.40
2017-11-22T18:05:48.812Z,82.10
2017-11-22T18:08:17.085Z,81.10
2017-11-22T18:10:45.325Z,81.80
2017-11-22T18:13:12.833Z,81.90
2017-11-22T18:15:41.065Z,82.20
2017-11-22T18:18:08.590Z,82.20
2017-11-22T18:20:36.073Z,81.70
2017-11-22T18:23:03.582Z,82.20
2017-11-22T18:25:31.827Z,81.40
2017-11-22T18:27:59.302Z,81.40
2017-11-22T18:30:26.822Z,80.40
2017-11-22T18:32:54.305Z,80.80
2017-11-22T18:35:21.794Z,80.60
2017-11-22T18:37:50.047Z,80.40
2017-11-22T18:40:17.551Z,80.40
2017-11-22T18:42:45.050Z,80.30
2017-11-22T18:45:12.548Z,80.40
2017-11-22T18:47:40.830Z,79.80
2017-11-22T18:50:09.099Z,79.00
2017-11-22T18:52:37.550Z,79.50
2017-11-22T18:55:05.051Z,79.50
2017-11-22T18:57:32.546Z,79.30
2017-11-22T19:00:00.057Z,78.70
2017-11-22T19:02:28.326Z,81.10
2017-11-22T19:04:56.629Z,80.90
2017-11-22T19:07:24.100Z,80.90
2017-11-22T19:09:51.600Z,81.40
2017-11-22T19:12:19.111Z,80.30
2017-11-22T19:14:46.622Z,80.00
2017-11-22T19:17:14.132Z,79.80
2017-11-22T19:19:41.642Z,80.60
2017-11-22T19:22:09.128Z,80.00
2017-11-22T19:24:37.367Z,78.90
2017-11-22T19:27:04.902Z,78.90
2017-11-22T19:29:32.447Z,79.60
2017-11-22T19:31:59.937Z,80.80
2017-11-22T19:34:27.448Z,80.80
2017-11-22T19:36:54.972Z,80.30
2017-11-22T19:39:22.461Z,80.10
2017-11-22T19:41:50.712Z,77.70
2017-11-22T19:44:18.321Z,77.70
2017-11-22T19:46:45.857Z,78.60
2017-11-22T19:49:14.112Z,79.20
2017-11-22T19:51:41.632Z,79.20
2017-11-22T19:54:09.130Z,78.40
2017-11-22T19:56:36.684Z,78.90
2017-11-22T19:59:04.220Z,78.60
2017-11-22T20:01:31.764Z,78.50
2017-11-22T20:03:59.283Z,77.90
2017-11-22T20:06:27.504Z,78.20
2017-11-22T20:08:55.023Z,78.20
2017-11-22T20:11:23.292Z,78.50
2017-11-22T20:13:51.564Z,78.30
2017-11-22T20:16:19.847Z,77.90
2017-11-22T20:18:48.089Z,77.50
2017-11-22T20:21:15.589Z,77.50
2017-11-22T20:23:43.995Z,78.20
2017-11-22T20:26:11.515Z,78.20
2017-11-22T20:28:39.947Z,77.60
2017-11-22T20:31:07.622Z,77.60
2017-11-22T20:33:35.137Z,77.70
2017-11-22T20:36:03.435Z,78.40
2017-11-22T20:38:30.898Z,78.40
2017-11-22T20:40:58.381Z,78.40
2017-11-22T20:43:25.844Z,78.40
2017-11-22T20:45:53.430Z,78.60
2017-11-22T20:48:21.680Z,80.40
2017-11-22T20:50:49.208Z,80.30
2017-11-22T20:53:16.677Z,79.80
2017-11-22T20:55:44.140Z,78.40
2017-11-22T20:58:11.641Z,78.00
2017-11-22T21:00:39.893Z,78.30
2017-11-22T21:03:07.441Z,78.30
2017-11-22T21:05:34.954Z,78.00
2017-11-22T21:08:03.115Z,78.10
2017-11-22T21:10:31.594Z,77.20
2017-11-22T21:13:00.156Z,77.30
2017-11-22T21:15:28.232Z,77.30
2017-11-22T21:17:55.788Z,77.50
2017-11-22T21:20:23.332Z,77.70
2017-11-22T21:22:50.842Z,77.80
2017-11-22T21:25:18.361Z,77.50
2017-11-22T21:27:45.854Z,77.20
2017-11-22T21:30:14.119Z,77.40
2017-11-22T21:32:42.204Z,77.40
2017-11-22T21:35:10.504Z,76.90
2017-11-22T21:37:38.339Z,76.90
2017-11-22T21:40:06.609Z,77.20
2017-11-22T21:42:34.104Z,77.20
2017-11-22T21:45:01.729Z,77.30
2017-11-22T21:47:29.309Z,77.30
2017-11-22T21:49:57.549Z,76.50
2017-11-22T21:52:25.050Z,76.50
2017-11-22T21:54:52.541Z,77.70
2017-11-22T21:57:20.044Z,77.80
2017-11-22T21:59:47.522Z,76.80
2017-11-22T22:02:15.800Z,78.20
2017-11-22T22:04:44.105Z,77.50
2017-11-22T22:07:11.582Z,77.40
2017-11-22T22:09:39.109Z,78.20
2017-11-22T22:12:06.580Z,77.20
2017-11-22T22:14:35.028Z,77.30
2017-11-22T22:17:03.301Z,76.80
2017-11-22T22:19:31.551Z,76.90
2017-11-22T22:21:59.056Z,77.00
2017-11-22T22:24:26.550Z,76.80
2017-11-22T22:26:54.091Z,76.40
2017-11-22T22:29:21.620Z,77.00
2017-11-22T22:31:49.868Z,77.80
2017-11-22T22:34:17.375Z,77.80
2017-11-22T22:36:44.846Z,77.00
2017-11-22T22:39:12.345Z,77.70
2017-11-22T22:41:39.828Z,77.30
2017-11-22T22:44:08.101Z,77.70
2017-11-22T22:46:36.339Z,77.30
2017-11-22T22:49:03.811Z,77.30
2017-11-22T22:51:31.307Z,78.30
2017-11-22T22:53:59.567Z,77.20
2017-11-22T22:56:28.562Z,77.30
2017-11-22T22:58:56.060Z,77.30
2017-11-22T23:01:23.540Z,77.10
2017-11-22T23:03:51.040Z,77.00
2017-11-22T23:06:18.544Z,76.10
2017-11-22T23:08:46.009Z,77.40
2017-11-22T23:11:13.486Z,77.20
2017-11-22T23:13:40.986Z,76.40
2017-11-22T23:16:09.217Z,76.00
2017-11-22T23:18:36.725Z,76.00
2017-11-22T23:21:04.989Z,76.50
2017-11-22T23:23:33.232Z,77.20
2017-11-22T23:26:00.697Z,77.20
2017-11-22T23:28:28.205Z,76.10
2017-11-22T23:30:55.693Z,76.70
2017-11-22T23:33:23.191Z,76.50
2017-11-22T23:35:50.689Z,76.70
2017-11-22T23:38:18.190Z,76.80
2017-11-22T23:40:45.673Z,76.50
2017-11-22T23:43:13.931Z,76.20
2017-11-22T23:45:41.424Z,76.20
2017-11-22T23:48:09.661Z,76.30
2017-11-22T23:50:37.175Z,76.30
2017-11-22T23:53:04.646Z,76.20
2017-11-22T23:55:32.135Z,76.00
2017-11-22T23:57:59.681Z,75.90
